createdAt,value
2023-01-27T00:02:42.919Z,12.90
2023-01-27T00:06:11.812Z,13.07
2023-01-27T00:09:35.614Z,9.27
2023-01-27T00:13:16.978Z,11.90
2023-01-27T00:16:42.994Z,12.57
2023-01-27T00:20:08.977Z,11.70
2023-01-27T00:23:50.821Z,10.30
2023-01-27T00:27:14.578Z,10.13
2023-01-27T00:30:38.631Z,10.67
2023-01-27T00:34:09.418Z,9.57
2023-01-27T00:37:35.752Z,9.97
2023-01-27T00:41:17.784Z,9.97
2023-01-27T00:45:04.827Z,6.27
2023-01-27T00:48:28.896Z,9.77
2023-01-27T00:51:54.892Z,8.83
2023-01-27T00:55:18.648Z,11.10
2023-01-27T00:58:42.610Z,7.30
2023-01-27T01:02:06.701Z,12.53
2023-01-27T01:05:30.607Z,8.13
2023-01-27T01:08:57.453Z,9.33
2023-01-27T01:12:21.003Z,7.47
2023-01-27T01:15:47.578Z,11.60
2023-01-27T01:19:11.656Z,7.53
2023-01-27T01:22:35.907Z,8.70
2023-01-27T01:26:00.915Z,9.60
2023-01-27T01:29:26.139Z,9.23
2023-01-27T01:32:50.630Z,9.33
2023-01-27T01:36:17.097Z,8.80
2023-01-27T01:39:41.644Z,7.87
2023-01-27T01:43:17.206Z,10.40
2023-01-27T01:46:41.670Z,8.10
2023-01-27T01:50:06.317Z,9.50
2023-01-27T01:53:34.659Z,10.17
2023-01-27T01:57:03.329Z,8.00
2023-01-27T02:00:28.380Z,8.80
2023-01-27T02:04:03.491Z,11.10
2023-01-27T02:07:34.078Z,10.93
2023-01-27T02:10:58.412Z,9.60
2023-01-27T02:14:22.856Z,9.10
2023-01-27T02:17:48.725Z,9.60
2023-01-27T02:21:15.398Z,7.47
2023-01-27T02:24:45.908Z,10.17
2023-01-27T02:28:11.175Z,10.50
2023-01-27T02:31:36.217Z,8.60
2023-01-27T02:34:59.941Z,8.70
2023-01-27T02:38:24.091Z,10.00
2023-01-27T02:41:50.785Z,10.70
2023-01-27T02:45:16.380Z,9.97
2023-01-27T02:48:40.986Z,8.67
2023-01-27T02:52:06.328Z,7.20
2023-01-27T02:55:30.710Z,8.63
2023-01-27T02:58:54.767Z,7.70
2023-01-27T03:02:32.057Z,9.43
2023-01-27T03:05:57.818Z,11.53
2023-01-27T03:09:21.761Z,6.67
2023-01-27T03:12:45.834Z,11.50
2023-01-27T03:16:31.365Z,9.37
2023-01-27T03:19:58.065Z,12.03
2023-01-27T03:23:22.730Z,9.33
2023-01-27T03:26:48.422Z,7.37
2023-01-27T03:30:14.972Z,8.70
2023-01-27T03:33:49.782Z,10.50
2023-01-27T03:37:45.004Z,8.43
2023-01-27T03:41:26.199Z,8.60
2023-01-27T03:45:08.011Z,7.20
2023-01-27T03:48:32.121Z,10.97
2023-01-27T03:51:56.741Z,8.60
2023-01-27T03:55:23.090Z,7.10
2023-01-27T03:58:47.112Z,6.73
2023-01-27T04:02:28.493Z,6.37
2023-01-27T04:06:11.059Z,9.40
2023-01-27T04:09:36.636Z,10.37
2023-01-27T04:13:04.387Z,7.40
2023-01-27T04:16:28.885Z,9.40
2023-01-27T04:19:53.848Z,7.43
2023-01-27T04:23:20.124Z,7.40
2023-01-27T04:26:49.392Z,7.40
2023-01-27T04:30:15.946Z,7.47
2023-01-27T04:33:39.595Z,8.97
2023-01-27T04:37:06.848Z,8.73
2023-01-27T04:40:30.448Z,9.00
2023-01-27T04:43:54.983Z,7.43
2023-01-27T04:47:19.930Z,7.90
2023-01-27T04:50:43.840Z,10.60
2023-01-27T04:54:07.876Z,9.83
2023-01-27T04:57:31.883Z,8.47
2023-01-27T05:00:56.109Z,9.53
2023-01-27T05:04:21.439Z,9.50
2023-01-27T05:07:47.581Z,8.13
2023-01-27T05:11:12.170Z,7.93
2023-01-27T05:14:35.758Z,7.87
2023-01-27T05:17:59.861Z,7.53
2023-01-27T05:21:28.938Z,9.17
2023-01-27T05:24:52.962Z,5.67
2023-01-27T05:28:16.959Z,7.83
2023-01-27T05:31:41.057Z,7.13
2023-01-27T05:35:05.401Z,7.93
2023-01-27T05:38:31.987Z,4.63
2023-01-27T05:41:56.141Z,6.20
2023-01-27T05:45:20.118Z,3.70
2023-01-27T05:48:45.502Z,5.30
2023-01-27T05:52:09.862Z,5.30
2023-01-27T05:55:35.210Z,5.07
2023-01-27T05:58:59.606Z,5.87
2023-01-27T06:02:24.408Z,5.00
2023-01-27T06:05:55.553Z,4.33
2023-01-27T06:09:19.925Z,6.03
2023-01-27T06:12:44.862Z,6.33
2023-01-27T06:16:10.626Z,6.77
2023-01-27T06:19:34.270Z,5.20
2023-01-27T06:22:58.919Z,3.63
2023-01-27T06:26:26.215Z,5.73
2023-01-27T06:29:53.030Z,4.17
2023-01-27T06:33:16.612Z,5.53
2023-01-27T06:36:40.156Z,6.07
2023-01-27T06:40:04.011Z,5.87
2023-01-27T06:43:32.083Z,5.67
2023-01-27T06:46:56.977Z,5.57
2023-01-27T06:50:20.761Z,5.30
2023-01-27T06:53:44.528Z,5.60
2023-01-27T06:57:16.739Z,4.33
2023-01-27T07:00:41.875Z,2.83
2023-01-27T07:04:08.271Z,4.33
2023-01-27T07:07:31.955Z,5.13
2023-01-27T07:10:55.561Z,4.63
2023-01-27T07:14:19.258Z,5.40
2023-01-27T07:17:42.890Z,4.00
2023-01-27T07:21:08.225Z,4.70
2023-01-27T07:24:32.602Z,3.10
2023-01-27T07:27:58.675Z,4.07
2023-01-27T07:31:22.347Z,4.53
2023-01-27T07:34:46.163Z,4.50
2023-01-27T07:38:11.666Z,4.83
2023-01-27T07:41:35.170Z,5.17
2023-01-27T07:44:58.857Z,3.63
2023-01-27T07:48:22.438Z,5.53
2023-01-27T07:51:46.332Z,4.20
2023-01-27T07:55:13.072Z,4.60
2023-01-27T07:58:37.052Z,5.10
2023-01-27T08:02:00.823Z,5.03
2023-01-27T08:05:25.271Z,3.97
2023-01-27T08:08:49.391Z,5.30
2023-01-27T08:12:14.478Z,4.60
2023-01-27T08:15:38.645Z,3.33
2023-01-27T08:19:02.162Z,5.10
2023-01-27T08:22:25.872Z,4.20
2023-01-27T08:25:52.860Z,5.80
2023-01-27T08:29:18.027Z,5.07
2023-01-27T08:32:41.668Z,5.37
2023-01-27T08:36:08.386Z,4.00
2023-01-27T08:39:32.746Z,5.60
2023-01-27T08:42:56.404Z,3.37
2023-01-27T08:46:22.036Z,4.30
2023-01-27T08:49:46.041Z,4.53
2023-01-27T08:53:09.624Z,4.70
2023-01-27T08:56:33.994Z,4.27
2023-01-27T08:59:57.580Z,5.50
2023-01-27T09:03:22.716Z,4.00
2023-01-27T09:06:48.318Z,4.00
2023-01-27T09:10:14.908Z,4.40
2023-01-27T09:13:39.096Z,3.20
2023-01-27T09:17:02.756Z,4.50
2023-01-27T09:20:27.693Z,5.57
2023-01-27T09:23:52.020Z,4.03
2023-01-27T09:27:15.614Z,4.33
2023-01-27T09:30:40.993Z,3.70
2023-01-27T09:34:05.609Z,3.43
2023-01-27T09:37:31.766Z,4.60
2023-01-27T09:41:13.917Z,5.00
2023-01-27T09:45:02.793Z,3.90
2023-01-27T09:48:50.857Z,3.07
2023-01-27T09:52:46.370Z,2.57
2023-01-27T09:56:20.431Z,3.60
2023-01-27T09:59:56.542Z,3.83
2023-01-27T10:03:32.817Z,4.03
2023-01-27T10:07:13.598Z,3.60
2023-01-27T10:10:59.094Z,2.50
2023-01-27T10:14:35.055Z,2.43
2023-01-27T10:18:09.290Z,2.10
2023-01-27T10:21:44.007Z,1.90
2023-01-27T10:25:18.151Z,2.03
2023-01-27T10:28:47.833Z,1.30
2023-01-27T10:32:20.556Z,2.40
2023-01-27T10:35:52.637Z,1.73
2023-01-27T10:39:24.180Z,1.20
2023-01-27T10:42:58.519Z,1.53
2023-01-27T10:46:35.406Z,1.57
2023-01-27T10:50:06.249Z,1.77
2023-01-27T10:53:38.221Z,1.67
2023-01-27T10:57:07.362Z,1.60
2023-01-27T11:04:28.353Z,1.70
2023-01-27T11:07:59.620Z,1.67
2023-01-27T11:11:44.381Z,1.50
2023-01-27T11:15:19.112Z,2.90
2023-01-27T11:18:46.016Z,1.83
2023-01-27T11:22:18.500Z,1.77
2023-01-27T11:25:52.810Z,2.13
2023-01-27T11:29:24.848Z,2.27
2023-01-27T11:32:53.729Z,1.93
2023-01-27T11:36:17.426Z,1.83
2023-01-27T11:39:41.039Z,2.00
2023-01-27T11:43:06.329Z,1.90
2023-01-27T11:46:31.222Z,2.27
2023-01-27T11:49:55.854Z,2.13
2023-01-27T11:53:25.055Z,2.13
2023-01-27T11:56:50.556Z,1.87
2023-01-27T12:00:24.124Z,1.90
2023-01-27T12:03:55.527Z,2.07
2023-01-27T12:07:24.713Z,2.17
2023-01-27T12:10:48.689Z,2.10
2023-01-27T12:14:14.857Z,2.13
2023-01-27T12:17:42.620Z,2.20
2023-01-27T12:21:10.281Z,2.50
2023-01-27T12:24:37.214Z,2.90
2023-01-27T12:28:04.736Z,2.10
2023-01-27T12:31:30.117Z,1.63
2023-01-27T12:34:56.944Z,2.00
2023-01-27T12:38:23.427Z,2.20
2023-01-27T12:41:47.104Z,2.10
2023-01-27T12:45:32.242Z,1.93
2023-01-27T12:49:06.219Z,2.10
2023-01-27T12:52:35.428Z,2.73
2023-01-27T12:56:10.432Z,2.20
2023-01-27T12:59:36.707Z,2.30
2023-01-27T13:03:10.660Z,2.20
2023-01-27T13:06:45.299Z,2.10
2023-01-27T13:10:21.669Z,2.50
2023-01-27T13:13:51.283Z,2.03
2023-01-27T13:17:37.859Z,2.33
2023-01-27T13:21:11.280Z,1.63
2023-01-27T13:24:41.963Z,2.23
2023-01-27T13:28:09.722Z,1.70
2023-01-27T13:31:42.957Z,2.20
2023-01-27T13:35:14.861Z,2.20
2023-01-27T13:38:48.393Z,2.37
2023-01-27T13:42:20.661Z,2.27
2023-01-27T13:45:49.494Z,2.67
2023-01-27T13:49:22.081Z,2.30
2023-01-27T13:52:47.154Z,2.83
2023-01-27T13:56:22.935Z,3.20
2023-01-27T13:59:59.259Z,3.67
2023-01-27T14:04:04.322Z,2.50
2023-01-27T14:07:37.262Z,2.03
2023-01-27T14:11:12.287Z,2.10
2023-01-27T14:14:57.821Z,1.90
2023-01-27T14:18:27.337Z,2.10
2023-01-27T14:21:57.110Z,1.63
2023-01-27T14:25:26.684Z,2.00
2023-01-27T14:29:04.044Z,2.10
2023-01-27T14:32:35.244Z,2.13
2023-01-27T14:36:10.647Z,2.47
2023-01-27T14:39:43.859Z,1.83
2023-01-27T14:43:16.875Z,1.60
2023-01-27T14:47:02.332Z,2.90
2023-01-27T14:50:34.603Z,2.10
2023-01-27T14:54:17.105Z,1.40
2023-01-27T14:57:50.230Z,2.17
2023-01-27T15:01:27.751Z,1.67
2023-01-27T15:05:01.293Z,1.67
2023-01-27T15:08:30.867Z,2.43
2023-01-27T15:12:18.089Z,1.73
2023-01-27T15:16:14.083Z,1.73
2023-01-27T15:20:01.720Z,1.70
2023-01-27T15:23:49.331Z,2.20
2023-01-27T15:27:13.331Z,2.53
2023-01-27T15:30:38.564Z,2.60
2023-01-27T15:34:21.359Z,2.40
2023-01-27T15:38:16.228Z,3.07
2023-01-27T15:41:52.725Z,3.20
2023-01-27T15:45:28.980Z,2.63
2023-01-27T15:48:52.678Z,2.20
2023-01-27T15:52:29.543Z,2.03
2023-01-27T15:55:56.418Z,2.53
2023-01-27T15:59:24.486Z,2.30
2023-01-27T16:02:53.400Z,2.30
2023-01-27T16:06:24.903Z,1.63
2023-01-27T16:09:52.083Z,1.97
2023-01-27T16:13:24.921Z,1.93
2023-01-27T16:17:04.218Z,1.70
2023-01-27T16:20:31.413Z,1.90
2023-01-27T16:23:59.397Z,3.10
2023-01-27T16:27:39.494Z,1.90
2023-01-27T16:31:07.181Z,1.80
2023-01-27T16:34:36.380Z,1.83
2023-01-27T16:38:07.435Z,2.50
2023-01-27T16:41:36.039Z,1.97
2023-01-27T16:45:05.298Z,1.93
2023-01-27T16:48:35.168Z,2.47
2023-01-27T16:52:01.426Z,1.70
2023-01-27T16:55:25.236Z,1.67
2023-01-27T16:58:50.959Z,2.17
2023-01-27T17:02:22.150Z,2.33
2023-01-27T17:05:53.000Z,2.20
2023-01-27T17:09:22.137Z,1.90
2023-01-27T17:12:51.158Z,2.13
2023-01-27T17:16:21.929Z,2.20
2023-01-27T17:19:50.535Z,2.10
2023-01-27T17:23:23.292Z,2.17
2023-01-27T17:26:50.708Z,2.37
2023-01-27T17:30:21.358Z,2.57
2023-01-27T17:33:47.713Z,2.00
2023-01-27T17:37:17.803Z,2.23
2023-01-27T17:40:43.239Z,1.90
2023-01-27T17:44:13.232Z,2.40
2023-01-27T17:47:36.822Z,1.80
2023-01-27T17:51:00.603Z,1.80
2023-01-27T17:54:29.963Z,2.87
2023-01-27T17:58:01.965Z,2.63
2023-01-27T18:01:25.552Z,2.40
2023-01-27T18:04:49.543Z,3.60
2023-01-27T18:08:13.281Z,2.93
2023-01-27T18:11:38.957Z,3.70
2023-01-27T18:15:33.510Z,3.23
2023-01-27T18:19:19.388Z,3.20
2023-01-27T18:22:46.191Z,3.50
2023-01-27T18:26:19.225Z,2.60
2023-01-27T18:29:44.549Z,4.17
2023-01-27T18:33:11.136Z,4.10
2023-01-27T18:36:37.163Z,3.30
2023-01-27T18:40:03.088Z,2.47
2023-01-27T18:43:27.070Z,3.23
2023-01-27T18:46:52.087Z,3.50
2023-01-27T18:50:18.091Z,3.40
2023-01-27T18:53:41.852Z,3.00
2023-01-27T18:57:05.422Z,3.33
2023-01-27T19:00:34.843Z,2.90
2023-01-27T19:04:00.090Z,3.37
2023-01-27T19:07:23.701Z,3.50
2023-01-27T19:10:48.788Z,3.17
2023-01-27T19:14:12.451Z,3.50
2023-01-27T19:17:36.124Z,2.87
2023-01-27T19:21:01.129Z,3.23
2023-01-27T19:24:24.775Z,2.93
2023-01-27T19:27:51.045Z,3.60
2023-01-27T19:31:14.827Z,3.60
2023-01-27T19:34:38.517Z,4.00
2023-01-27T19:38:05.590Z,3.80
2023-01-27T19:41:29.506Z,3.40
2023-01-27T19:44:53.086Z,3.23
2023-01-27T19:48:18.953Z,4.30
2023-01-27T19:51:42.554Z,5.03
2023-01-27T19:55:08.438Z,4.23
2023-01-27T19:58:32.017Z,4.47
2023-01-27T20:01:58.150Z,3.50
2023-01-27T20:05:26.551Z,3.87
2023-01-27T20:08:53.697Z,4.60
2023-01-27T20:12:18.732Z,4.07
2023-01-27T20:15:42.994Z,4.83
2023-01-27T20:19:06.661Z,3.50
2023-01-27T20:22:30.211Z,4.47
2023-01-27T20:25:56.386Z,5.17
2023-01-27T20:29:21.286Z,3.70
2023-01-27T20:32:45.291Z,3.97
2023-01-27T20:36:10.078Z,5.03
2023-01-27T20:39:34.666Z,4.53
2023-01-27T20:43:00.596Z,4.30
2023-01-27T20:46:26.025Z,4.80
2023-01-27T20:49:49.591Z,4.80
2023-01-27T20:53:13.189Z,4.27
2023-01-27T20:56:36.889Z,4.87
2023-01-27T21:00:00.609Z,3.80
2023-01-27T21:03:25.610Z,4.27
2023-01-27T21:06:49.213Z,4.60
2023-01-27T21:10:13.191Z,3.70
2023-01-27T21:13:36.778Z,3.30
2023-01-27T21:17:00.358Z,4.63
2023-01-27T21:20:25.592Z,4.73
2023-01-27T21:23:49.477Z,4.67
2023-01-27T21:27:13.441Z,3.70
2023-01-27T21:30:37.232Z,4.17
2023-01-27T21:34:01.298Z,6.37
2023-01-27T21:37:26.969Z,6.00
2023-01-27T21:40:52.348Z,4.63
2023-01-27T21:44:35.831Z,5.70
2023-01-27T21:47:59.483Z,11.40
2023-01-27T21:51:23.212Z,25.20
2023-01-27T21:54:48.266Z,14.60
2023-01-27T21:58:11.906Z,17.07
2023-01-27T22:01:35.724Z,6.60
2023-01-27T22:04:59.393Z,19.13
2023-01-27T22:08:23.119Z,21.47
2023-01-27T22:11:48.014Z,8.37
2023-01-27T22:15:14.253Z,11.80
2023-01-27T22:18:38.024Z,9.80
2023-01-27T22:22:01.597Z,9.67
2023-01-27T22:25:27.098Z,4.80
2023-01-27T22:28:52.226Z,6.53
2023-01-27T22:32:15.880Z,7.23
2023-01-27T22:35:39.959Z,4.60
2023-01-27T22:39:04.695Z,3.93
2023-01-27T22:42:28.250Z,3.63
2023-01-27T22:45:53.224Z,3.80
2023-01-27T22:49:17.095Z,3.00
2023-01-27T22:52:40.756Z,4.43
2023-01-27T22:56:05.054Z,4.70
2023-01-27T22:59:28.692Z,4.20
2023-01-27T23:02:53.614Z,3.80
2023-01-27T23:06:17.198Z,4.73
2023-01-27T23:09:40.751Z,4.10
2023-01-27T23:13:04.497Z,6.10
2023-01-27T23:16:28.190Z,6.00
2023-01-27T23:19:53.138Z,5.17
2023-01-27T23:23:19.067Z,5.13
2023-01-27T23:26:42.620Z,5.60
2023-01-27T23:30:09.143Z,5.20
2023-01-27T23:33:36.268Z,5.20
2023-01-27T23:37:01.163Z,5.10
2023-01-27T23:40:24.909Z,4.07
2023-01-27T23:43:52.654Z,4.20
2023-01-27T23:47:17.163Z,4.77
2023-01-27T23:50:40.836Z,4.37
2023-01-27T23:54:06.136Z,4.57
2023-01-27T23:57:29.658Z,5.00
